createdAt,value
2018-07-21T00:01:44.051Z,14.60
2018-07-21T00:04:11.789Z,14.07
2018-07-21T00:06:39.439Z,15.23
2018-07-21T00:09:08.732Z,14.20
2018-07-21T00:11:36.386Z,14.50
2018-07-21T00:14:04.092Z,14.90
2018-07-21T00:16:31.799Z,14.60
2018-07-21T00:18:59.575Z,15.17
2018-07-21T00:21:27.334Z,16.77
2018-07-21T00:23:55.014Z,16.00
2018-07-21T00:26:22.799Z,12.73
2018-07-21T00:28:50.971Z,12.27
2018-07-21T00:31:18.824Z,13.43
2018-07-21T00:33:46.461Z,11.37
2018-07-21T00:36:15.626Z,10.70
2018-07-21T00:38:43.369Z,11.67
2018-07-21T00:41:11.159Z,12.00
2018-07-21T00:43:38.832Z,11.77
2018-07-21T00:46:06.604Z,13.67
2018-07-21T00:48:34.422Z,12.33
2018-07-21T00:51:02.352Z,14.37
2018-07-21T00:53:31.514Z,12.47
2018-07-21T00:55:59.808Z,11.23
2018-07-21T00:58:27.558Z,13.03
2018-07-21T01:00:55.250Z,12.27
2018-07-21T01:03:22.963Z,12.20
2018-07-21T01:05:50.631Z,11.50
2018-07-21T01:08:18.307Z,11.93
2018-07-21T01:10:46.018Z,13.50
2018-07-21T01:13:13.792Z,11.10
2018-07-21T01:15:41.539Z,12.97
2018-07-21T01:18:09.558Z,11.30
2018-07-21T01:20:38.453Z,11.50
2018-07-21T01:23:06.334Z,10.93
2018-07-21T01:25:34.056Z,11.17
2018-07-21T01:28:01.727Z,10.73
2018-07-21T01:30:29.912Z,13.47
2018-07-21T01:32:57.582Z,11.30
2018-07-21T01:35:25.346Z,13.90
2018-07-21T01:37:54.126Z,11.60
2018-07-21T01:40:22.280Z,10.30
2018-07-21T01:42:49.955Z,9.50
2018-07-21T01:45:17.659Z,9.17
2018-07-21T01:47:45.694Z,10.90
2018-07-21T01:50:13.543Z,9.17
2018-07-21T01:52:41.232Z,9.17
2018-07-21T01:55:09.322Z,10.17
2018-07-21T01:57:37.327Z,10.70
2018-07-21T02:00:05.454Z,9.90
2018-07-21T02:02:33.295Z,11.30
2018-07-21T02:05:01.043Z,9.53
2018-07-21T02:07:28.747Z,10.40
2018-07-21T02:09:56.744Z,9.10
2018-07-21T02:12:25.476Z,8.80
2018-07-21T02:14:53.220Z,9.40
2018-07-21T02:17:21.042Z,8.53
2018-07-21T02:19:49.123Z,8.87
2018-07-21T02:22:16.938Z,9.17
2018-07-21T02:24:44.758Z,8.90
2018-07-21T02:27:12.588Z,9.30
2018-07-21T02:29:40.527Z,9.00
2018-07-21T02:32:08.423Z,8.93
2018-07-21T02:34:36.220Z,8.87
2018-07-21T02:37:04.445Z,9.40
2018-07-21T02:39:32.161Z,9.27
2018-07-21T02:42:13.073Z,9.43
2018-07-21T02:44:40.829Z,10.10
2018-07-21T02:47:08.509Z,9.50
2018-07-21T02:49:36.188Z,9.13
2018-07-21T02:52:03.875Z,9.40
2018-07-21T02:54:32.676Z,9.10
2018-07-21T02:57:00.649Z,10.63
2018-07-21T02:59:28.638Z,9.97
2018-07-21T03:01:56.408Z,9.30
2018-07-21T03:04:24.471Z,9.30
2018-07-21T03:06:52.436Z,9.87
2018-07-21T03:09:20.325Z,10.73
2018-07-21T03:11:48.019Z,10.10
2018-07-21T03:14:15.699Z,10.50
2018-07-21T03:16:43.593Z,10.73
2018-07-21T03:19:11.278Z,9.10
2018-07-21T03:21:38.930Z,10.23
2018-07-21T03:24:06.739Z,10.10
2018-07-21T03:26:34.640Z,10.77
2018-07-21T03:29:02.837Z,9.83
2018-07-21T03:31:30.554Z,10.77
2018-07-21T03:33:58.248Z,10.23
2018-07-21T03:36:26.089Z,9.40
2018-07-21T03:38:53.910Z,12.87
2018-07-21T03:41:21.551Z,11.53
2018-07-21T03:43:49.454Z,10.33
2018-07-21T03:46:17.915Z,9.60
2018-07-21T03:48:45.587Z,9.80
2018-07-21T03:51:14.623Z,10.30
2018-07-21T03:53:42.409Z,10.43
2018-07-21T03:56:10.091Z,11.33
2018-07-21T03:58:39.015Z,12.03
2018-07-21T04:01:07.280Z,10.90
2018-07-21T04:03:34.918Z,11.60
2018-07-21T04:06:02.905Z,13.13
2018-07-21T04:08:30.588Z,10.60
2018-07-21T04:10:58.298Z,10.97
2018-07-21T04:13:25.968Z,10.97
2018-07-21T04:15:53.762Z,12.63
2018-07-21T04:18:21.436Z,12.17
2018-07-21T04:20:49.598Z,13.60
2018-07-21T04:23:17.291Z,12.23
2018-07-21T04:25:45.656Z,11.90
2018-07-21T04:28:13.511Z,13.07
2018-07-21T04:30:41.241Z,13.37
2018-07-21T04:33:09.041Z,12.23
2018-07-21T04:35:36.809Z,15.03
2018-07-21T04:38:04.841Z,17.40
2018-07-21T04:40:32.601Z,17.23
2018-07-21T04:43:00.270Z,15.67
2018-07-21T04:45:28.142Z,14.80
2018-07-21T04:47:56.456Z,15.33
2018-07-21T04:50:24.359Z,14.67
2018-07-21T04:52:52.221Z,14.83
2018-07-21T04:55:20.027Z,14.33
2018-07-21T04:57:47.852Z,14.73
2018-07-21T05:00:16.022Z,13.73
2018-07-21T05:02:43.670Z,18.03
2018-07-21T05:05:11.286Z,14.50
2018-07-21T05:07:38.913Z,14.77
2018-07-21T05:10:06.635Z,15.63
2018-07-21T05:12:34.616Z,15.23
2018-07-21T05:15:02.275Z,15.17
2018-07-21T05:17:29.958Z,15.00
2018-07-21T05:19:57.840Z,15.07
2018-07-21T05:22:25.494Z,15.60
2018-07-21T05:24:53.155Z,14.00
2018-07-21T05:27:21.082Z,14.40
2018-07-21T05:29:48.907Z,15.53
2018-07-21T05:32:16.870Z,15.83
2018-07-21T05:34:45.357Z,15.83
2018-07-21T05:37:13.069Z,14.10
2018-07-21T05:39:40.747Z,15.27
2018-07-21T05:42:08.523Z,13.30
2018-07-21T05:44:36.238Z,14.63
2018-07-21T05:47:03.925Z,14.30
2018-07-21T05:49:31.563Z,14.40
2018-07-21T05:51:59.491Z,13.83
2018-07-21T05:54:27.220Z,16.77
2018-07-21T05:56:54.894Z,14.77
2018-07-21T05:59:22.575Z,13.43
2018-07-21T06:01:50.622Z,11.53
2018-07-21T06:04:20.090Z,13.30
2018-07-21T06:06:47.863Z,12.50
2018-07-21T06:09:15.735Z,13.10
2018-07-21T06:11:43.404Z,11.87
2018-07-21T06:14:11.437Z,13.50
2018-07-21T06:16:40.022Z,12.30
2018-07-21T06:19:07.756Z,10.87
2018-07-21T06:21:35.699Z,9.57
2018-07-21T06:24:03.439Z,12.60
2018-07-21T06:26:31.095Z,14.53
2018-07-21T06:28:58.975Z,15.10
2018-07-21T06:31:26.640Z,13.33
2018-07-21T06:34:02.484Z,15.17
2018-07-21T06:36:30.319Z,14.07
2018-07-21T06:38:58.153Z,12.03
2018-07-21T06:41:25.871Z,13.43
2018-07-21T06:43:53.637Z,12.87
2018-07-21T06:46:21.326Z,13.90
2018-07-21T06:48:48.983Z,15.90
2018-07-21T06:51:16.775Z,12.70
2018-07-21T06:53:48.254Z,12.93
2018-07-21T06:56:15.951Z,12.70
2018-07-21T06:58:43.740Z,13.33
2018-07-21T07:01:11.626Z,13.23
2018-07-21T07:03:39.895Z,15.33
2018-07-21T07:06:07.641Z,13.30
2018-07-21T07:08:35.471Z,13.27
2018-07-21T07:11:03.200Z,14.83
2018-07-21T07:13:30.991Z,13.50
2018-07-21T07:15:58.652Z,15.57
2018-07-21T07:18:26.307Z,13.77
2018-07-21T07:20:54.304Z,13.80
2018-07-21T07:23:22.304Z,14.63
2018-07-21T07:25:50.235Z,14.20
2018-07-21T07:28:18.434Z,14.57
2018-07-21T07:30:46.165Z,12.70
2018-07-21T07:33:14.055Z,13.17
2018-07-21T07:35:41.768Z,14.90
2018-07-21T07:38:09.545Z,13.47
2018-07-21T07:40:37.243Z,13.40
2018-07-21T07:43:05.565Z,13.37
2018-07-21T07:45:33.231Z,13.20
2018-07-21T07:48:00.920Z,11.43
2018-07-21T07:50:28.643Z,12.57
2018-07-21T07:52:56.424Z,14.30
2018-07-21T07:55:29.605Z,14.63
2018-07-21T07:57:57.280Z,15.53
2018-07-21T08:00:24.975Z,12.83
2018-07-21T08:02:52.948Z,14.10
2018-07-21T08:05:20.820Z,13.03
2018-07-21T08:07:48.683Z,13.23
2018-07-21T08:10:16.561Z,14.97
2018-07-21T08:12:44.222Z,12.43
2018-07-21T08:15:11.898Z,12.90
2018-07-21T08:17:39.730Z,13.13
2018-07-21T08:20:07.595Z,11.73
2018-07-21T08:22:35.519Z,14.97
2018-07-21T08:25:03.491Z,12.30
2018-07-21T08:27:31.796Z,12.00
2018-07-21T08:29:59.512Z,15.13
2018-07-21T08:32:27.858Z,13.47
2018-07-21T08:34:55.916Z,11.90
2018-07-21T08:37:23.622Z,12.83
2018-07-21T08:39:51.271Z,14.23
2018-07-21T08:42:19.212Z,13.13
2018-07-21T08:44:46.877Z,12.40
2018-07-21T08:47:14.588Z,12.90
2018-07-21T08:49:42.388Z,14.27
2018-07-21T08:52:10.872Z,16.33
2018-07-21T08:54:38.739Z,14.37
2018-07-21T08:57:06.417Z,15.30
2018-07-21T08:59:34.072Z,15.20
2018-07-21T09:02:02.052Z,15.70
2018-07-21T09:04:29.732Z,16.87
2018-07-21T09:06:57.522Z,16.40
2018-07-21T09:09:25.296Z,19.03
2018-07-21T09:11:54.886Z,16.17
2018-07-21T09:14:22.630Z,17.40
2018-07-21T09:16:50.418Z,16.37
2018-07-21T09:19:18.349Z,14.73
2018-07-21T09:21:46.853Z,14.20
2018-07-21T09:24:14.631Z,13.67
2018-07-21T09:26:42.933Z,11.47
2018-07-21T09:29:10.874Z,10.90
2018-07-21T09:31:39.603Z,11.87
2018-07-21T09:34:08.244Z,12.33
2018-07-21T09:36:35.940Z,14.13
2018-07-21T09:39:06.298Z,12.03
2018-07-21T09:41:34.219Z,11.93
2018-07-21T09:44:01.904Z,13.17
2018-07-21T09:46:29.595Z,11.17
2018-07-21T09:48:57.327Z,13.30
2018-07-21T09:51:25.180Z,10.30
2018-07-21T09:53:53.139Z,11.20
2018-07-21T09:56:21.161Z,13.60
2018-07-21T09:58:49.047Z,12.73
2018-07-21T10:01:16.767Z,16.07
2018-07-21T10:03:44.457Z,11.30
2018-07-21T10:06:12.226Z,10.30
2018-07-21T10:08:40.159Z,11.97
2018-07-21T10:11:08.823Z,11.23
2018-07-21T10:13:36.664Z,13.97
2018-07-21T10:16:04.455Z,13.80
2018-07-21T10:18:34.726Z,12.73
2018-07-21T10:21:02.486Z,14.33
2018-07-21T10:23:30.279Z,12.20
2018-07-21T10:26:03.813Z,12.70
2018-07-21T10:28:37.214Z,12.70
2018-07-21T10:31:04.876Z,15.30
2018-07-21T10:33:32.914Z,15.47
2018-07-21T10:36:00.672Z,11.23
2018-07-21T10:38:28.401Z,19.00
2018-07-21T10:40:56.380Z,16.30
2018-07-21T10:43:24.521Z,14.03
2018-07-21T10:45:52.307Z,13.40
2018-07-21T10:48:20.060Z,13.10
2018-07-21T10:50:48.604Z,14.67
2018-07-21T10:53:16.427Z,15.07
2018-07-21T10:55:44.382Z,12.80
2018-07-21T10:58:12.131Z,14.57
2018-07-21T11:00:39.889Z,14.17
2018-07-21T11:03:07.648Z,12.37
2018-07-21T11:05:35.447Z,12.57
2018-07-21T11:08:03.319Z,11.77
2018-07-21T11:10:30.993Z,13.03
2018-07-21T11:12:58.721Z,12.30
2018-07-21T11:15:26.469Z,11.73
2018-07-21T11:17:54.208Z,11.00
2018-07-21T11:20:21.990Z,10.97
2018-07-21T11:22:49.705Z,11.10
2018-07-21T11:25:17.991Z,11.23
2018-07-21T11:27:46.803Z,12.90
2018-07-21T11:30:14.539Z,11.73
2018-07-21T11:32:42.933Z,11.73
2018-07-21T11:35:10.661Z,11.57
2018-07-21T11:37:38.479Z,11.63
2018-07-21T11:40:06.161Z,10.77
2018-07-21T11:42:34.106Z,10.17
2018-07-21T11:45:02.172Z,9.33
2018-07-21T11:47:30.789Z,10.70
2018-07-21T11:49:58.564Z,10.23
2018-07-21T11:52:26.657Z,10.27
2018-07-21T11:54:54.411Z,11.27
2018-07-21T11:57:22.067Z,11.20
2018-07-21T11:59:49.759Z,11.53
2018-07-21T12:02:17.425Z,11.40
2018-07-21T12:04:45.598Z,10.47
2018-07-21T12:07:13.313Z,11.47
2018-07-21T12:09:41.151Z,10.93
2018-07-21T12:12:08.944Z,11.17
2018-07-21T12:14:36.789Z,11.37
2018-07-21T12:17:04.774Z,10.87
2018-07-21T12:19:32.631Z,11.17
2018-07-21T12:22:00.313Z,11.03
2018-07-21T12:24:28.384Z,9.80
2018-07-21T12:26:56.161Z,10.20
2018-07-21T12:29:23.992Z,12.40
2018-07-21T12:31:51.681Z,10.37
2018-07-21T12:34:19.476Z,11.27
2018-07-21T12:36:47.114Z,12.10
2018-07-21T12:39:15.431Z,10.73
2018-07-21T12:41:43.195Z,11.17
2018-07-21T12:44:10.922Z,11.10
2018-07-21T12:46:38.590Z,11.17
2018-07-21T12:49:06.755Z,10.63
2018-07-21T12:51:34.545Z,10.67
2018-07-21T12:54:02.281Z,9.87
2018-07-21T12:56:30.103Z,9.77
2018-07-21T12:58:57.916Z,8.60
2018-07-21T13:01:25.655Z,9.40
2018-07-21T13:03:58.840Z,8.50
2018-07-21T13:06:26.543Z,7.80
2018-07-21T13:08:54.408Z,8.20
2018-07-21T13:11:22.383Z,8.53
2018-07-21T13:13:50.102Z,7.80
2018-07-21T13:16:18.142Z,7.93
2018-07-21T13:18:45.835Z,8.63
2018-07-21T13:21:13.509Z,10.50
2018-07-21T13:23:41.474Z,7.07
2018-07-21T13:26:09.803Z,6.60
2018-07-21T13:28:37.473Z,5.43
2018-07-21T13:31:05.495Z,6.67
2018-07-21T13:33:33.180Z,5.30
2018-07-21T13:36:00.965Z,6.13
2018-07-21T13:38:28.660Z,6.80
2018-07-21T13:40:56.432Z,8.10
2018-07-21T13:43:24.101Z,6.43
2018-07-21T13:45:51.940Z,6.40
2018-07-21T13:48:20.927Z,6.20
2018-07-21T13:50:50.516Z,5.67
2018-07-21T13:53:19.379Z,5.87
2018-07-21T13:55:47.103Z,5.53
2018-07-21T13:58:14.790Z,6.07
2018-07-21T14:00:42.489Z,5.07
2018-07-21T14:03:10.292Z,5.63
2018-07-21T14:05:38.039Z,7.00
2018-07-21T14:08:05.869Z,5.10
2018-07-21T14:10:33.544Z,6.37
2018-07-21T14:13:01.193Z,5.63
2018-07-21T14:15:28.947Z,5.97
2018-07-21T14:17:56.603Z,5.60
2018-07-21T14:20:24.446Z,6.50
2018-07-21T14:22:52.263Z,4.50
2018-07-21T14:25:20.096Z,5.77
2018-07-21T14:27:47.826Z,4.73
2018-07-21T14:30:15.531Z,5.07
2018-07-21T14:32:43.359Z,5.23
2018-07-21T14:35:11.054Z,5.17
2018-07-21T14:37:38.921Z,5.03
2018-07-21T14:40:06.730Z,4.13
2018-07-21T14:42:34.407Z,4.33
2018-07-21T14:45:02.242Z,5.47
2018-07-21T14:47:30.020Z,4.67
2018-07-21T14:49:57.689Z,4.60
2018-07-21T14:52:25.566Z,4.83
2018-07-21T14:54:53.328Z,5.07
2018-07-21T14:57:21.088Z,12.63
2018-07-21T14:59:49.222Z,5.53
2018-07-21T15:02:17.179Z,4.50
2018-07-21T15:04:44.868Z,4.87
2018-07-21T15:07:12.768Z,5.73
2018-07-21T15:09:40.536Z,4.53
2018-07-21T15:12:08.311Z,4.97
2018-07-21T15:14:35.999Z,5.57
2018-07-21T15:17:03.671Z,4.93
2018-07-21T15:19:31.492Z,5.00
2018-07-21T15:21:59.436Z,5.20
2018-07-21T15:24:27.083Z,5.30
2018-07-21T15:26:54.942Z,5.40
2018-07-21T15:29:22.746Z,5.37
2018-07-21T15:31:50.425Z,4.80
2018-07-21T15:34:19.455Z,4.83
2018-07-21T15:36:47.893Z,5.63
2018-07-21T15:39:15.764Z,5.50
2018-07-21T15:41:43.441Z,5.20
2018-07-21T15:44:11.116Z,5.87
2018-07-21T15:46:38.804Z,5.67
2018-07-21T15:49:06.568Z,5.53
2018-07-21T15:51:34.303Z,5.93
2018-07-21T15:54:02.718Z,5.60
2018-07-21T15:56:31.508Z,5.97
2018-07-21T15:59:00.195Z,6.13
2018-07-21T16:01:28.059Z,6.30
2018-07-21T16:03:55.935Z,6.53
2018-07-21T16:06:23.724Z,6.30
2018-07-21T16:08:51.455Z,7.57
2018-07-21T16:11:19.313Z,6.10
2018-07-21T16:13:47.060Z,7.30
2018-07-21T16:16:16.278Z,7.67
2018-07-21T16:18:43.939Z,6.63
2018-07-21T16:21:12.845Z,6.27
2018-07-21T16:23:40.882Z,6.00
2018-07-21T16:26:10.152Z,8.90
2018-07-21T16:28:37.913Z,7.23
2018-07-21T16:31:08.183Z,7.17
2018-07-21T16:33:45.868Z,7.00
2018-07-21T16:36:14.031Z,6.90
2018-07-21T16:38:43.184Z,6.83
2018-07-21T16:41:10.888Z,7.97
2018-07-21T16:43:38.599Z,8.80
2018-07-21T16:46:06.486Z,7.27
2018-07-21T16:48:34.244Z,10.10
2018-07-21T16:51:02.015Z,6.90
2018-07-21T16:53:30.216Z,7.63
2018-07-21T16:55:59.679Z,7.07
2018-07-21T16:58:27.791Z,7.10
2018-07-21T17:00:55.649Z,7.47
2018-07-21T17:03:23.742Z,7.33
2018-07-21T17:05:51.402Z,7.67
2018-07-21T17:08:19.454Z,7.27
2018-07-21T17:10:47.113Z,6.80
2018-07-21T17:13:16.197Z,5.97
2018-07-21T17:15:43.939Z,5.70
2018-07-21T17:18:11.642Z,5.37
2018-07-21T17:20:39.456Z,4.80
2018-07-21T17:23:07.179Z,4.20
2018-07-21T17:25:35.143Z,3.93
2018-07-21T17:28:03.109Z,3.30
2018-07-21T17:30:31.439Z,3.50
2018-07-21T17:32:59.205Z,3.50
2018-07-21T17:35:26.956Z,4.63
2018-07-21T17:37:55.463Z,3.70
2018-07-21T17:40:23.214Z,3.70
2018-07-21T17:42:51.376Z,4.03
2018-07-21T17:45:19.184Z,3.67
2018-07-21T17:47:47.001Z,3.57
2018-07-21T17:50:14.866Z,3.53
2018-07-21T17:52:42.527Z,2.80
2018-07-21T17:55:10.867Z,3.03
2018-07-21T17:57:38.726Z,2.90
2018-07-21T18:00:06.703Z,2.70
2018-07-21T18:02:34.507Z,3.00
2018-07-21T18:05:02.207Z,2.77
2018-07-21T18:07:30.223Z,2.93
2018-07-21T18:09:57.956Z,3.23
2018-07-21T18:12:25.606Z,3.10
2018-07-21T18:14:53.379Z,2.70
2018-07-21T18:17:22.060Z,2.70
2018-07-21T18:19:49.731Z,3.37
2018-07-21T18:22:17.703Z,3.07
2018-07-21T18:24:45.411Z,2.90
2018-07-21T18:27:13.166Z,3.17
2018-07-21T18:29:40.856Z,2.93
2018-07-21T18:32:08.705Z,4.10
2018-07-21T18:34:36.707Z,3.50
2018-07-21T18:37:04.734Z,3.60
2018-07-21T18:39:32.407Z,3.53
2018-07-21T18:42:00.188Z,3.67
2018-07-21T18:44:27.853Z,3.57
2018-07-21T18:46:55.682Z,3.50
2018-07-21T18:49:23.318Z,3.90
2018-07-21T18:51:51.342Z,4.60
2018-07-21T18:54:19.629Z,3.70
2018-07-21T18:56:47.340Z,3.93
2018-07-21T18:59:15.029Z,3.50
2018-07-21T19:01:42.820Z,4.00
2018-07-21T19:04:10.524Z,3.70
2018-07-21T19:06:38.169Z,5.57
2018-07-21T19:09:08.710Z,3.63
2018-07-21T19:11:36.779Z,3.80
2018-07-21T19:14:04.875Z,3.80
2018-07-21T19:16:39.095Z,3.90
2018-07-21T19:19:07.228Z,4.00
2018-07-21T19:21:36.320Z,4.33
2018-07-21T19:24:04.106Z,4.17
2018-07-21T19:26:37.656Z,4.10
2018-07-21T19:29:05.655Z,5.87
2018-07-21T19:31:33.548Z,4.20
2018-07-21T19:34:06.280Z,4.50
2018-07-21T19:36:34.325Z,4.13
2018-07-21T19:39:02.211Z,4.20
2018-07-21T19:41:35.572Z,4.60
2018-07-21T19:44:03.526Z,4.10
2018-07-21T19:46:31.280Z,4.63
2018-07-21T19:48:59.076Z,4.70
2018-07-21T19:51:26.992Z,4.53
2018-07-21T19:53:54.735Z,5.20
2018-07-21T19:56:22.625Z,6.47
2018-07-21T19:58:50.392Z,6.70
2018-07-21T20:01:18.086Z,5.50
2018-07-21T20:03:45.918Z,5.83
2018-07-21T20:06:13.636Z,6.10
2018-07-21T20:08:41.335Z,5.87
2018-07-21T20:11:09.021Z,6.30
2018-07-21T20:13:36.708Z,6.80
2018-07-21T20:16:04.628Z,6.60
2018-07-21T20:18:32.677Z,7.37
2018-07-21T20:21:01.664Z,7.40
2018-07-21T20:23:29.834Z,7.30
2018-07-21T20:25:58.475Z,7.10
2018-07-21T20:28:26.890Z,7.77
2018-07-21T20:30:56.670Z,6.60
2018-07-21T20:33:24.520Z,7.20
2018-07-21T20:35:52.395Z,8.40
2018-07-21T20:38:20.467Z,12.40
2018-07-21T20:40:48.518Z,12.67
2018-07-21T20:43:16.263Z,10.20
2018-07-21T20:45:43.997Z,8.20
2018-07-21T20:48:11.658Z,9.07
2018-07-21T20:50:39.344Z,8.77
2018-07-21T20:53:07.014Z,10.27
2018-07-21T20:55:34.868Z,9.40
2018-07-21T20:58:02.751Z,9.97
2018-07-21T21:00:31.557Z,10.83
2018-07-21T21:03:00.807Z,10.27
2018-07-21T21:05:28.859Z,10.70
2018-07-21T21:07:56.602Z,12.07
2018-07-21T21:10:25.079Z,14.43
2018-07-21T21:12:53.286Z,12.13
2018-07-21T21:15:21.959Z,12.50
2018-07-21T21:17:50.266Z,12.30
2018-07-21T21:20:18.079Z,12.40
2018-07-21T21:22:45.989Z,12.87
2018-07-21T21:25:13.817Z,12.73
2018-07-21T21:27:41.574Z,13.03
2018-07-21T21:30:09.708Z,13.77
2018-07-21T21:32:37.756Z,14.20
2018-07-21T21:35:05.683Z,14.17
2018-07-21T21:37:33.385Z,13.77
2018-07-21T21:40:01.134Z,13.10
2018-07-21T21:42:29.219Z,14.07
2018-07-21T21:44:57.561Z,12.30
2018-07-21T21:47:25.776Z,13.30
2018-07-21T21:49:54.015Z,13.60
2018-07-21T21:52:21.847Z,15.00
2018-07-21T21:54:49.560Z,14.13
2018-07-21T21:57:18.869Z,15.07
2018-07-21T21:59:46.607Z,15.70
2018-07-21T22:02:14.716Z,17.53
2018-07-21T22:04:42.473Z,19.20
2018-07-21T22:07:10.706Z,17.87
2018-07-21T22:09:38.494Z,18.13
2018-07-21T22:12:07.776Z,17.53
2018-07-21T22:14:35.815Z,17.23
2018-07-21T22:17:03.835Z,16.43
2018-07-21T23:25:34.446Z,35.13
